Hughesville, Missouri
Current Conditions -  °F | °C
As of 1:53 PM on Monday 26 Jan 2015 (Local Time) from KDMO Reporting Station
Clear Clear  
Wind Chill: 52°   Ceiling: Unl
Heat Index: 52°   Visibility: 10mi
Dew Point: 35°   Wind: 14mph
Humidity: 53%   Direction: 250°WSW
Pressure: 29.86"   Gusts: 30mph
Location:  38.84°N, 93.3°W
Report Text: KDMO 261953Z AUTO 25012G26KT 10SM CLR 11/02 A2986 RMK AO2 PK WND 25026/1948 SLP116 T01110017
Loading
Personal Weather Stations






























Interactive Weather Map New forecast layout! Learn more

10-Day Weather Forecast

Advertisements
Track Severe Weather on mobile